AVA9351 SKRG-SKBO
Flight info
| Callsign | AVA9351 |
|---|---|
| Flight time | 0h 29m |
| Altitude | 21000 |
| Route | ISVAT2B ISVAT ISVAT4W |
| Aircraft | A320/M-SDE3FGHIRWY/LB1 |
Departure
| Time | 2026-04-26 21:20 |
|---|---|
| Airport | Jose Maria Córdova International Airport (SKRG) |
Arrival
| Time | 2026-04-26 21:50 |
|---|---|
| Airport | El Dorado International Airport (SKBO) |
| Time | Latitude | Longitude | Altitude | Speed | Heading |
|---|---|---|---|---|---|
| 2026-04-26 20:55 | 6.17039 | -75.42712 | 7016 ft | 0 kts | 307° |
| 2026-04-26 21:09 | 6.17036 | -75.42708 | 7016 ft | 3 kts | 307° |
| 2026-04-26 21:09 | 6.17021 | -75.42689 | 7017 ft | 4 kts | 311° |
| 2026-04-26 21:09 | 6.17003 | -75.42681 | 7019 ft | 4 kts | 28° |
| 2026-04-26 21:10 | 6.16981 | -75.42697 | 7020 ft | 4 kts | 44° |
| 2026-04-26 21:10 | 6.16964 | -75.42714 | 7018 ft | 2 kts | 46° |
| 2026-04-26 21:10 | 6.16978 | -75.42699 | 7019 ft | 4 kts | 46° |
| 2026-04-26 21:10 | 6.16999 | -75.42681 | 7019 ft | 4 kts | 38° |
| 2026-04-26 21:11 | 6.17008 | -75.42675 | 7018 ft | 0 kts | 36° |
| 2026-04-26 21:13 | 6.17014 | -75.42670 | 7021 ft | 1 kts | 37° |
| 2026-04-26 21:14 | 6.17026 | -75.42660 | 7018 ft | 3 kts | 39° |
| 2026-04-26 21:14 | 6.17047 | -75.42636 | 7017 ft | 6 kts | 64° |
| 2026-04-26 21:14 | 6.17040 | -75.42594 | 7019 ft | 7 kts | 126° |
| 2026-04-26 21:14 | 6.17009 | -75.42569 | 7019 ft | 6 kts | 148° |
| 2026-04-26 21:15 | 6.16967 | -75.42545 | 7020 ft | 8 kts | 152° |
| 2026-04-26 21:15 | 6.16912 | -75.42512 | 7020 ft | 10 kts | 149° |
| 2026-04-26 21:15 | 6.16835 | -75.42485 | 7015 ft | 13 kts | 180° |
| 2026-04-26 21:15 | 6.16729 | -75.42485 | 7016 ft | 17 kts | 180° |
| 2026-04-26 21:16 | 6.16590 | -75.42485 | 7006 ft | 22 kts | 179° |
| 2026-04-26 21:16 | 6.16419 | -75.42486 | 6993 ft | 27 kts | 182° |
| 2026-04-26 21:16 | 6.16236 | -75.42485 | 6983 ft | 27 kts | 179° |
| 2026-04-26 21:16 | 6.16055 | -75.42483 | 6987 ft | 27 kts | 179° |
| 2026-04-26 21:17 | 6.15876 | -75.42481 | 6984 ft | 22 kts | 179° |
| 2026-04-26 21:17 | 6.15716 | -75.42477 | 6982 ft | 24 kts | 179° |
| 2026-04-26 21:17 | 6.15537 | -75.42477 | 6980 ft | 27 kts | 180° |
| 2026-04-26 21:17 | 6.15384 | -75.42476 | 6979 ft | 21 kts | 179° |
| 2026-04-26 21:18 | 6.15233 | -75.42475 | 6978 ft | 22 kts | 179° |
| 2026-04-26 21:18 | 6.15075 | -75.42474 | 6977 ft | 23 kts | 179° |
| 2026-04-26 21:18 | 6.14974 | -75.42473 | 6977 ft | 13 kts | 180° |
| 2026-04-26 21:18 | 6.14901 | -75.42439 | 6977 ft | 12 kts | 93° |
| 2026-04-26 21:19 | 6.14911 | -75.42349 | 6975 ft | 14 kts | 56° |
| 2026-04-26 21:19 | 6.14999 | -75.42304 | 6977 ft | 15 kts | 1° |
| 2026-04-26 21:19 | 6.15124 | -75.42305 | 6979 ft | 32 kts | 359° |
| 2026-04-26 21:19 | 6.15600 | -75.42309 | 6982 ft | 104 kts | 359° |
| 2026-04-26 21:20 | 6.16539 | -75.42316 | 6997 ft | 162 kts | 359° |
| 2026-04-26 21:20 | 6.17740 | -75.42327 | 7614 ft | 176 kts | 0° |
| 2026-04-26 21:20 | 6.18986 | -75.42326 | 8352 ft | 181 kts | 0° |
| 2026-04-26 21:20 | 6.20309 | -75.42317 | 8599 ft | 199 kts | 6° |
| 2026-04-26 21:21 | 6.21669 | -75.41969 | 8910 ft | 212 kts | 30° |
| 2026-04-26 21:21 | 6.22659 | -75.40861 | 9306 ft | 220 kts | 70° |
| 2026-04-26 21:21 | 6.22733 | -75.39339 | 9788 ft | 223 kts | 109° |
| 2026-04-26 21:21 | 6.22013 | -75.37968 | 10329 ft | 222 kts | 125° |
| 2026-04-26 21:22 | 6.21084 | -75.36739 | 10792 ft | 223 kts | 129° |
| 2026-04-26 21:22 | 6.20106 | -75.35515 | 11239 ft | 225 kts | 129° |
| 2026-04-26 21:22 | 6.19138 | -75.34268 | 11678 ft | 227 kts | 127° |
| 2026-04-26 21:23 | 6.17224 | -75.31706 | 12521 ft | 233 kts | 132° |
| 2026-04-26 21:23 | 6.15987 | -75.30596 | 12641 ft | 250 kts | 146° |
| 2026-04-26 21:23 | 6.14402 | -75.29743 | 12751 ft | 270 kts | 160° |
| 2026-04-26 21:23 | 6.12566 | -75.29056 | 12891 ft | 293 kts | 160° |
| 2026-04-26 21:24 | 6.10598 | -75.28307 | 13259 ft | 308 kts | 159° |
| 2026-04-26 21:24 | 6.08573 | -75.27527 | 13878 ft | 313 kts | 159° |
| 2026-04-26 21:24 | 6.06525 | -75.26738 | 14456 ft | 317 kts | 159° |
| 2026-04-26 21:24 | 6.04451 | -75.25939 | 15032 ft | 320 kts | 159° |
| 2026-04-26 21:25 | 6.02355 | -75.25134 | 15608 ft | 323 kts | 159° |
| 2026-04-26 21:25 | 6.00239 | -75.24320 | 16182 ft | 326 kts | 159° |
| 2026-04-26 21:25 | 5.98133 | -75.23508 | 16738 ft | 329 kts | 159° |
| 2026-04-26 21:25 | 5.95973 | -75.22678 | 17172 ft | 338 kts | 159° |
| 2026-04-26 21:26 | 5.93719 | -75.21815 | 17273 ft | 355 kts | 159° |
| 2026-04-26 21:26 | 5.91347 | -75.20909 | 17410 ft | 371 kts | 159° |
| 2026-04-26 21:26 | 5.88901 | -75.19973 | 17780 ft | 378 kts | 159° |
| 2026-04-26 21:26 | 5.86429 | -75.19024 | 18271 ft | 382 kts | 159° |
| 2026-04-26 21:27 | 5.83927 | -75.18062 | 18717 ft | 386 kts | 159° |
| 2026-04-26 21:27 | 5.81448 | -75.17107 | 19165 ft | 388 kts | 159° |
| 2026-04-26 21:27 | 5.78914 | -75.16131 | 19635 ft | 390 kts | 159° |
| 2026-04-26 21:27 | 5.76366 | -75.15150 | 20092 ft | 393 kts | 159° |
| 2026-04-26 21:28 | 5.73804 | -75.14166 | 20545 ft | 395 kts | 159° |
| 2026-04-26 21:28 | 5.71220 | -75.13176 | 20908 ft | 398 kts | 159° |
| 2026-04-26 21:28 | 5.68637 | -75.12182 | 21005 ft | 393 kts | 159° |
| 2026-04-26 21:28 | 5.66143 | -75.11184 | 21022 ft | 381 kts | 158° |
| 2026-04-26 21:29 | 5.63727 | -75.10183 | 21022 ft | 378 kts | 158° |
| 2026-04-26 21:29 | 5.61298 | -75.09163 | 21022 ft | 377 kts | 157° |
| 2026-04-26 21:29 | 5.58876 | -75.08143 | 21028 ft | 377 kts | 157° |
| 2026-04-26 21:29 | 5.56450 | -75.07129 | 21024 ft | 377 kts | 158° |
| 2026-04-26 21:30 | 5.54026 | -75.06126 | 21025 ft | 377 kts | 158° |
| 2026-04-26 21:30 | 5.51599 | -75.05127 | 21009 ft | 377 kts | 158° |
| 2026-04-26 21:30 | 5.49173 | -75.04133 | 20989 ft | 377 kts | 158° |
| 2026-04-26 21:30 | 5.46740 | -75.03136 | 20972 ft | 377 kts | 158° |
| 2026-04-26 21:31 | 5.44309 | -75.02136 | 20953 ft | 377 kts | 158° |
| 2026-04-26 21:31 | 5.41908 | -75.01147 | 20934 ft | 377 kts | 158° |
| 2026-04-26 21:31 | 5.39500 | -75.00152 | 20735 ft | 370 kts | 158° |
| 2026-04-26 21:31 | 5.37144 | -74.99178 | 20477 ft | 362 kts | 158° |
| 2026-04-26 21:32 | 5.34840 | -74.98210 | 20222 ft | 355 kts | 157° |
| 2026-04-26 21:32 | 5.32570 | -74.97246 | 19977 ft | 352 kts | 157° |
| 2026-04-26 21:32 | 5.30320 | -74.96286 | 19731 ft | 350 kts | 157° |
| 2026-04-26 21:32 | 5.28078 | -74.95330 | 19487 ft | 349 kts | 157° |
| 2026-04-26 21:33 | 5.25840 | -74.94379 | 19245 ft | 348 kts | 157° |
| 2026-04-26 21:33 | 5.23618 | -74.93434 | 19008 ft | 344 kts | 156° |
| 2026-04-26 21:33 | 5.21545 | -74.92248 | 18621 ft | 344 kts | 143° |
| 2026-04-26 21:33 | 5.19806 | -74.90600 | 18203 ft | 345 kts | 129° |
| 2026-04-26 21:34 | 5.18501 | -74.88614 | 17695 ft | 347 kts | 120° |
| 2026-04-26 21:34 | 5.17302 | -74.86489 | 17043 ft | 348 kts | 120° |
| 2026-04-26 21:34 | 5.16129 | -74.84423 | 16676 ft | 335 kts | 120° |
| 2026-04-26 21:34 | 5.14975 | -74.82411 | 16532 ft | 331 kts | 120° |
| 2026-04-26 21:35 | 5.13812 | -74.80402 | 16341 ft | 332 kts | 120° |
| 2026-04-26 21:35 | 5.12653 | -74.78404 | 16106 ft | 330 kts | 120° |
| 2026-04-26 21:35 | 5.11499 | -74.76421 | 15877 ft | 328 kts | 120° |
| 2026-04-26 21:35 | 5.10347 | -74.74438 | 15649 ft | 327 kts | 120° |
| 2026-04-26 21:36 | 5.09205 | -74.72468 | 15421 ft | 326 kts | 120° |
| 2026-04-26 21:36 | 5.08451 | -74.71166 | 15270 ft | 325 kts | 120° |
| 2026-04-26 21:36 | 5.06951 | -74.68576 | 14967 ft | 323 kts | 120° |
| 2026-04-26 21:36 | 5.05821 | -74.66628 | 14757 ft | 322 kts | 120° |
| 2026-04-26 21:37 | 5.04695 | -74.64686 | 14622 ft | 320 kts | 120° |
| 2026-04-26 21:37 | 5.03574 | -74.62755 | 14635 ft | 320 kts | 120° |
| 2026-04-26 21:37 | 5.02449 | -74.60821 | 14647 ft | 320 kts | 120° |
| 2026-04-26 21:37 | 5.01340 | -74.58916 | 14661 ft | 320 kts | 120° |
| 2026-04-26 21:38 | 5.00216 | -74.56980 | 14666 ft | 320 kts | 120° |
| 2026-04-26 21:38 | 4.99097 | -74.55049 | 14670 ft | 320 kts | 120° |
| 2026-04-26 21:38 | 4.97973 | -74.53111 | 14672 ft | 320 kts | 120° |
| 2026-04-26 21:38 | 4.96852 | -74.51179 | 14677 ft | 320 kts | 120° |
| 2026-04-26 21:39 | 4.95730 | -74.49247 | 14681 ft | 320 kts | 120° |
| 2026-04-26 21:39 | 4.94628 | -74.47347 | 14685 ft | 309 kts | 120° |
| 2026-04-26 21:39 | 4.93569 | -74.45523 | 14687 ft | 296 kts | 120° |
| 2026-04-26 21:39 | 4.92551 | -74.43775 | 14692 ft | 284 kts | 121° |
| 2026-04-26 21:40 | 4.91412 | -74.42201 | 14713 ft | 274 kts | 134° |
| 2026-04-26 21:40 | 4.89987 | -74.40955 | 14653 ft | 272 kts | 146° |
| 2026-04-26 21:40 | 4.88362 | -74.40048 | 14443 ft | 270 kts | 153° |
| 2026-04-26 21:40 | 4.86691 | -74.39195 | 14242 ft | 268 kts | 153° |
| 2026-04-26 21:41 | 4.85036 | -74.38346 | 14035 ft | 267 kts | 153° |
| 2026-04-26 21:41 | 4.83385 | -74.37495 | 13814 ft | 266 kts | 153° |
| 2026-04-26 21:41 | 4.81741 | -74.36644 | 13572 ft | 265 kts | 153° |
| 2026-04-26 21:41 | 4.80105 | -74.35796 | 13387 ft | 264 kts | 153° |
| 2026-04-26 21:42 | 4.78474 | -74.34952 | 13360 ft | 263 kts | 153° |
| 2026-04-26 21:42 | 4.76843 | -74.34109 | 13384 ft | 264 kts | 153° |
| 2026-04-26 21:42 | 4.75206 | -74.33262 | 13397 ft | 264 kts | 153° |
| 2026-04-26 21:42 | 4.73576 | -74.32417 | 13418 ft | 264 kts | 153° |
| 2026-04-26 21:43 | 4.71940 | -74.31571 | 13425 ft | 264 kts | 153° |
| 2026-04-26 21:43 | 4.70346 | -74.30734 | 13424 ft | 252 kts | 149° |
| 2026-04-26 21:43 | 4.68992 | -74.29722 | 13439 ft | 239 kts | 136° |
| 2026-04-26 21:43 | 4.67919 | -74.28503 | 13466 ft | 230 kts | 129° |
| 2026-04-26 21:44 | 4.66919 | -74.27249 | 13215 ft | 228 kts | 129° |
| 2026-04-26 21:44 | 4.65925 | -74.26017 | 13007 ft | 226 kts | 129° |
| 2026-04-26 21:44 | 4.64937 | -74.24795 | 12810 ft | 225 kts | 129° |
| 2026-04-26 21:44 | 4.63951 | -74.23577 | 12617 ft | 224 kts | 129° |
| 2026-04-26 21:45 | 4.62985 | -74.22354 | 12411 ft | 224 kts | 125° |
| 2026-04-26 21:45 | 4.62216 | -74.21022 | 12121 ft | 223 kts | 114° |
| 2026-04-26 21:45 | 4.61705 | -74.19569 | 11837 ft | 221 kts | 104° |
| 2026-04-26 21:45 | 4.61360 | -74.18074 | 11559 ft | 214 kts | 104° |
| 2026-04-26 21:46 | 4.60996 | -74.16682 | 11295 ft | 203 kts | 105° |
| 2026-04-26 21:46 | 4.60630 | -74.15337 | 11029 ft | 197 kts | 105° |
| 2026-04-26 21:46 | 4.60394 | -74.13998 | 10783 ft | 194 kts | 91° |
| 2026-04-26 21:46 | 4.60624 | -74.12738 | 10615 ft | 178 kts | 68° |
| 2026-04-26 21:47 | 4.61243 | -74.11696 | 10327 ft | 172 kts | 50° |
| 2026-04-26 21:47 | 4.62122 | -74.10913 | 10024 ft | 168 kts | 31° |
| 2026-04-26 21:47 | 4.63181 | -74.10446 | 9839 ft | 166 kts | 15° |
| 2026-04-26 21:47 | 4.64321 | -74.10304 | 9649 ft | 165 kts | 358° |
| 2026-04-26 21:48 | 4.65443 | -74.10519 | 9449 ft | 164 kts | 339° |
| 2026-04-26 21:48 | 4.66441 | -74.11072 | 9194 ft | 163 kts | 321° |
| 2026-04-26 21:48 | 4.67219 | -74.11897 | 8984 ft | 164 kts | 308° |
| 2026-04-26 21:48 | 4.67900 | -74.12800 | 8731 ft | 164 kts | 310° |
| 2026-04-26 21:49 | 4.68598 | -74.13703 | 8510 ft | 165 kts | 309° |
| 2026-04-26 21:49 | 4.69302 | -74.14600 | 8363 ft | 157 kts | 307° |
| 2026-04-26 21:49 | 4.69854 | -74.15330 | 8366 ft | 103 kts | 307° |
| 2026-04-26 21:49 | 4.70187 | -74.15771 | 8363 ft | 62 kts | 307° |
| 2026-04-26 21:50 | 4.70336 | -74.15967 | 8364 ft | 19 kts | 309° |
| 2026-04-26 21:50 | 4.70407 | -74.15970 | 8365 ft | 17 kts | 36° |
| 2026-04-26 21:50 | 4.70498 | -74.15901 | 8365 ft | 10 kts | 37° |
| 2026-04-26 21:50 | 4.70513 | -74.15845 | 8365 ft | 9 kts | 112° |
| 2026-04-26 21:51 | 4.70476 | -74.15797 | 8365 ft | 9 kts | 129° |
| 2026-04-26 21:51 | 4.70435 | -74.15744 | 8365 ft | 10 kts | 128° |
| 2026-04-26 21:51 | 4.70390 | -74.15686 | 8365 ft | 11 kts | 129° |
| 2026-04-26 21:51 | 4.70341 | -74.15624 | 8365 ft | 12 kts | 125° |
| 2026-04-26 21:52 | 4.70292 | -74.15555 | 8365 ft | 12 kts | 127° |
| 2026-04-26 21:52 | 4.70240 | -74.15485 | 8365 ft | 13 kts | 127° |
| 2026-04-26 21:52 | 4.70188 | -74.15415 | 8365 ft | 13 kts | 128° |
| 2026-04-26 21:52 | 4.70133 | -74.15345 | 8366 ft | 13 kts | 127° |
| 2026-04-26 21:53 | 4.70080 | -74.15277 | 8366 ft | 12 kts | 127° |
| 2026-04-26 21:53 | 4.70047 | -74.15231 | 8366 ft | 12 kts | 126° |
| 2026-04-26 21:53 | 4.69979 | -74.15140 | 8366 ft | 12 kts | 127° |
| 2026-04-26 21:53 | 4.69924 | -74.15071 | 8366 ft | 13 kts | 129° |
| 2026-04-26 21:54 | 4.69872 | -74.14999 | 8366 ft | 12 kts | 127° |
| 2026-04-26 21:54 | 4.69853 | -74.14938 | 8366 ft | 8 kts | 57° |
| 2026-04-26 21:54 | 4.69885 | -74.14912 | 8366 ft | 9 kts | 40° |
| 2026-04-26 21:54 | 4.69900 | -74.14872 | 8366 ft | 4 kts | 12° |
| 2026-04-26 21:55 | 4.69926 | -74.14861 | 8366 ft | 4 kts | 32° |
| 2026-04-26 21:55 | 4.69933 | -74.14830 | 8366 ft | 7 kts | 98° |
| 2026-04-26 21:55 | 4.69900 | -74.14782 | 8366 ft | 10 kts | 126° |
| 2026-04-26 21:55 | 4.69858 | -74.14722 | 8366 ft | 11 kts | 125° |
| 2026-04-26 21:56 | 4.69815 | -74.14664 | 8366 ft | 9 kts | 128° |
| 2026-04-26 21:56 | 4.69780 | -74.14619 | 8366 ft | 6 kts | 127° |
| 2026-04-26 21:56 | 4.69763 | -74.14585 | 8366 ft | 4 kts | 73° |
| 2026-04-26 21:56 | 4.69784 | -74.14566 | 8366 ft | 4 kts | 41° |
| 2026-04-26 21:57 | 4.69799 | -74.14554 | 8366 ft | 0 kts | 37° |